createdAt,value
2023-05-09T00:00:29.915Z,19.00
2023-05-09T00:03:15.375Z,17.98
2023-05-09T00:06:01.131Z,17.48
2023-05-09T00:08:46.269Z,16.63
2023-05-09T00:11:31.809Z,15.95
2023-05-09T00:14:18.296Z,17.52
2023-05-09T00:17:03.692Z,18.65
2023-05-09T00:19:49.947Z,16.85
2023-05-09T00:22:35.517Z,17.77
2023-05-09T00:25:20.956Z,17.35
2023-05-09T00:28:06.455Z,18.90
2023-05-09T00:30:51.995Z,18.55
2023-05-09T00:33:37.394Z,18.48
2023-05-09T00:36:23.486Z,18.63
2023-05-09T00:39:09.589Z,18.42
2023-05-09T00:41:56.670Z,18.88
2023-05-09T00:44:42.251Z,19.25
2023-05-09T00:47:30.678Z,18.63
2023-05-09T00:50:16.087Z,16.98
2023-05-09T00:53:01.295Z,18.60
2023-05-09T00:55:47.070Z,16.35
2023-05-09T00:58:32.299Z,17.88
2023-05-09T01:01:17.658Z,16.60
2023-05-09T01:04:03.271Z,18.52
2023-05-09T01:07:02.297Z,18.02
2023-05-09T01:10:07.459Z,18.70
2023-05-09T01:12:59.915Z,19.15
2023-05-09T01:16:06.012Z,19.52
2023-05-09T01:19:16.132Z,21.83
2023-05-09T01:22:04.199Z,20.00
2023-05-09T01:25:19.540Z,20.52
2023-05-09T01:28:12.576Z,21.65
2023-05-09T01:30:58.184Z,22.60
2023-05-09T01:33:46.625Z,21.77
2023-05-09T01:36:33.218Z,23.02
2023-05-09T01:39:20.892Z,21.77
2023-05-09T01:42:09.402Z,22.30
2023-05-09T01:44:55.922Z,20.23
2023-05-09T01:47:41.944Z,21.55
2023-05-09T01:50:29.907Z,21.50
2023-05-09T01:53:17.154Z,20.38
2023-05-09T01:56:04.308Z,23.05
2023-05-09T01:58:51.615Z,20.27
2023-05-09T02:01:37.434Z,19.90
2023-05-09T02:04:23.845Z,19.30
2023-05-09T02:07:12.451Z,19.65
2023-05-09T02:09:58.971Z,18.45
2023-05-09T02:12:44.497Z,17.85
2023-05-09T02:15:30.209Z,18.00
2023-05-09T02:18:16.824Z,18.73
2023-05-09T02:21:03.130Z,18.08
2023-05-09T02:23:48.924Z,16.48
2023-05-09T02:26:35.722Z,19.42
2023-05-09T02:29:25.378Z,17.20
2023-05-09T02:32:15.193Z,18.73
2023-05-09T02:35:04.051Z,18.15
2023-05-09T02:37:49.491Z,20.15
2023-05-09T02:40:36.457Z,21.45
2023-05-09T02:43:22.007Z,20.40
2023-05-09T02:46:08.495Z,19.90
2023-05-09T02:48:53.843Z,19.88
2023-05-09T02:51:39.131Z,19.48
2023-05-09T02:54:24.588Z,19.30
2023-05-09T02:57:09.952Z,18.55
2023-05-09T02:59:55.698Z,23.58
2023-05-09T03:02:41.100Z,20.52
2023-05-09T03:08:18.425Z,21.60
2023-05-09T03:11:03.742Z,20.63
2023-05-09T03:13:49.262Z,21.67
2023-05-09T03:16:35.264Z,21.48
2023-05-09T03:19:21.209Z,20.83
2023-05-09T03:22:06.430Z,20.08
2023-05-09T03:24:55.747Z,21.00
2023-05-09T03:27:41.146Z,21.15
2023-05-09T03:30:30.795Z,20.80
2023-05-09T03:33:16.923Z,20.70
2023-05-09T03:36:02.433Z,18.50
2023-05-09T03:38:47.731Z,18.83
2023-05-09T03:41:33.241Z,19.80
2023-05-09T03:44:19.113Z,20.90
2023-05-09T03:47:04.394Z,20.05
2023-05-09T03:49:56.090Z,19.25
2023-05-09T03:52:42.226Z,18.73
2023-05-09T03:55:27.595Z,17.92
2023-05-09T03:58:13.132Z,18.38
2023-05-09T04:01:00.605Z,16.73
2023-05-09T04:03:46.230Z,17.65
2023-05-09T04:06:34.207Z,17.58
2023-05-09T04:09:19.763Z,19.30
2023-05-09T04:12:06.932Z,16.83
2023-05-09T04:14:52.799Z,15.50
2023-05-09T04:17:37.897Z,16.02
2023-05-09T04:20:23.389Z,16.40
2023-05-09T04:23:08.877Z,14.75
2023-05-09T04:25:54.193Z,14.40
2023-05-09T04:28:39.691Z,14.50
2023-05-09T04:31:26.405Z,13.95
2023-05-09T04:34:11.901Z,14.68
2023-05-09T04:36:58.138Z,13.90
2023-05-09T04:39:43.627Z,13.45
2023-05-09T04:42:38.643Z,13.93
2023-05-09T04:45:24.001Z,13.57
2023-05-09T04:48:10.255Z,13.02
2023-05-09T04:50:55.277Z,12.95
2023-05-09T04:53:40.762Z,13.20
2023-05-09T04:56:26.284Z,13.85
2023-05-09T04:59:11.768Z,13.52
2023-05-09T05:01:57.758Z,13.45
2023-05-09T05:04:43.057Z,13.43
2023-05-09T05:07:28.571Z,13.57
2023-05-09T05:10:13.940Z,12.75
2023-05-09T05:13:03.437Z,13.25
2023-05-09T05:15:49.676Z,12.57
2023-05-09T05:18:35.169Z,13.85
2023-05-09T05:21:21.550Z,13.05
2023-05-09T05:24:07.551Z,12.57
2023-05-09T05:26:52.883Z,12.60
2023-05-09T05:29:38.479Z,11.32
2023-05-09T05:32:25.050Z,10.88
2023-05-09T05:35:11.941Z,10.82
2023-05-09T05:37:57.503Z,10.55
2023-05-09T05:40:43.912Z,10.88
2023-05-09T05:43:29.311Z,11.07
2023-05-09T05:46:15.243Z,10.55
2023-05-09T05:49:01.058Z,10.05
2023-05-09T05:51:46.943Z,9.45
2023-05-09T05:54:32.275Z,9.45
2023-05-09T05:57:17.614Z,9.32
2023-05-09T06:00:06.410Z,9.50
2023-05-09T06:02:58.813Z,9.38
2023-05-09T06:05:50.935Z,10.18
2023-05-09T06:08:36.689Z,9.95
2023-05-09T06:11:22.121Z,10.13
2023-05-09T06:14:07.635Z,10.52
2023-05-09T06:16:53.946Z,12.45
2023-05-09T06:19:39.387Z,12.00
2023-05-09T06:22:24.944Z,12.93
2023-05-09T06:25:12.019Z,13.00
2023-05-09T06:27:57.772Z,12.27
2023-05-09T06:30:43.138Z,12.15
2023-05-09T06:33:28.534Z,12.05
2023-05-09T06:36:14.006Z,12.68
2023-05-09T06:39:00.026Z,13.32
2023-05-09T06:41:45.374Z,12.50
2023-05-09T06:44:38.130Z,12.57
2023-05-09T06:47:23.394Z,12.25
2023-05-09T06:50:09.193Z,11.93
2023-05-09T06:52:54.571Z,12.15
2023-05-09T06:55:40.019Z,13.05
2023-05-09T06:58:25.425Z,12.98
2023-05-09T07:01:10.818Z,12.40
2023-05-09T07:03:56.219Z,10.95
2023-05-09T07:06:41.794Z,11.15
2023-05-09T07:09:28.591Z,11.57
2023-05-09T07:12:13.881Z,12.20
2023-05-09T07:14:59.548Z,11.93
2023-05-09T07:17:44.898Z,11.95
2023-05-09T07:20:30.312Z,11.52
2023-05-09T07:23:15.879Z,12.38
2023-05-09T07:26:01.476Z,12.27
2023-05-09T07:28:46.985Z,13.32
2023-05-09T07:31:33.984Z,12.45
2023-05-09T07:34:20.697Z,11.80
2023-05-09T07:37:06.097Z,12.45
2023-05-09T07:39:51.936Z,12.45
2023-05-09T07:42:37.447Z,12.27
2023-05-09T07:45:23.829Z,12.10
2023-05-09T07:48:09.525Z,11.73
2023-05-09T07:50:55.031Z,10.75
2023-05-09T07:53:40.629Z,12.25
2023-05-09T07:56:26.472Z,12.23
2023-05-09T07:59:12.293Z,13.15
2023-05-09T08:01:57.455Z,12.65
2023-05-09T08:04:42.749Z,12.07
2023-05-09T08:07:28.006Z,13.38
2023-05-09T08:10:13.580Z,11.93
2023-05-09T08:12:59.096Z,13.50
2023-05-09T08:15:44.784Z,11.88
2023-05-09T08:18:30.384Z,10.88
2023-05-09T08:21:15.788Z,11.18
2023-05-09T08:24:01.884Z,10.18
2023-05-09T08:26:47.324Z,10.80
2023-05-09T08:29:32.884Z,9.73
2023-05-09T08:32:19.836Z,10.18
2023-05-09T08:35:06.154Z,9.65
2023-05-09T08:37:51.422Z,9.35
2023-05-09T08:40:40.068Z,9.15
2023-05-09T08:43:25.772Z,8.90
2023-05-09T08:46:12.435Z,11.07
2023-05-09T08:48:58.523Z,9.65
2023-05-09T08:51:44.928Z,8.93
2023-05-09T08:54:30.683Z,11.30
2023-05-09T08:57:16.296Z,9.82
2023-05-09T09:00:04.130Z,10.05
2023-05-09T09:02:49.734Z,9.77
2023-05-09T09:05:41.907Z,9.90
2023-05-09T09:11:17.062Z,10.35
2023-05-09T09:14:16.538Z,10.68
2023-05-09T09:17:01.855Z,9.63
2023-05-09T09:19:51.204Z,10.13
2023-05-09T09:22:39.357Z,9.48
2023-05-09T09:25:24.672Z,9.13
2023-05-09T09:28:10.788Z,9.23
2023-05-09T09:30:56.177Z,8.65
2023-05-09T09:33:44.029Z,8.63
2023-05-09T09:36:32.671Z,9.40
2023-05-09T09:39:17.951Z,8.70
2023-05-09T09:42:12.546Z,10.65
2023-05-09T09:45:02.913Z,9.25
2023-05-09T09:47:52.928Z,9.63
2023-05-09T09:50:38.162Z,8.35
2023-05-09T09:53:26.557Z,8.20
2023-05-09T09:56:12.171Z,7.00
2023-05-09T09:59:15.122Z,6.82
2023-05-09T10:02:07.901Z,6.57
2023-05-09T10:04:53.927Z,7.20
2023-05-09T10:07:39.397Z,6.07
2023-05-09T10:10:36.520Z,6.88
2023-05-09T10:13:22.447Z,7.40
2023-05-09T10:16:09.653Z,6.68
2023-05-09T10:18:55.527Z,6.65
2023-05-09T10:21:41.318Z,6.72
2023-05-09T10:24:57.743Z,6.80
2023-05-09T10:27:46.140Z,6.47
2023-05-09T10:30:35.589Z,7.03
2023-05-09T10:33:27.852Z,7.00
2023-05-09T10:36:20.297Z,7.60
2023-05-09T10:39:05.932Z,6.80
2023-05-09T10:41:51.640Z,6.93
2023-05-09T10:44:38.941Z,6.10
2023-05-09T10:47:28.921Z,6.82
2023-05-09T10:50:14.948Z,6.63
2023-05-09T10:53:14.345Z,6.20
2023-05-09T10:56:01.533Z,6.50
2023-05-09T10:58:48.009Z,6.07
2023-05-09T11:01:37.090Z,6.03
2023-05-09T11:04:22.744Z,7.05
2023-05-09T11:07:26.847Z,6.63
2023-05-09T11:10:18.696Z,6.45
2023-05-09T11:13:03.877Z,6.68
2023-05-09T11:16:05.102Z,6.78
2023-05-09T11:18:52.544Z,6.97
2023-05-09T11:21:38.106Z,9.65
2023-05-09T11:24:23.499Z,8.57
2023-05-09T11:27:20.016Z,7.43
2023-05-09T11:30:07.046Z,7.78
2023-05-09T11:32:55.149Z,6.88
2023-05-09T11:35:43.979Z,7.60
2023-05-09T11:38:44.690Z,7.25
2023-05-09T11:41:31.410Z,7.25
2023-05-09T11:44:18.855Z,6.10
2023-05-09T11:47:04.539Z,5.95
2023-05-09T11:49:50.270Z,5.82
2023-05-09T11:52:37.671Z,6.13
2023-05-09T11:55:23.013Z,6.18
2023-05-09T11:58:09.638Z,5.85
2023-05-09T12:00:55.327Z,6.53
2023-05-09T12:03:47.495Z,5.85
2023-05-09T12:06:32.862Z,6.88
2023-05-09T12:09:20.059Z,6.18
2023-05-09T12:12:12.420Z,6.10
2023-05-09T12:15:03.120Z,6.30
2023-05-09T12:18:00.460Z,5.82
2023-05-09T12:20:47.211Z,5.70
2023-05-09T12:23:35.265Z,5.50
2023-05-09T12:26:22.470Z,5.97
2023-05-09T12:29:07.743Z,6.10
2023-05-09T12:31:54.254Z,6.00
2023-05-09T12:34:39.925Z,5.50
2023-05-09T12:37:25.339Z,5.50
2023-05-09T12:40:15.064Z,5.70
2023-05-09T12:43:02.746Z,5.38
2023-05-09T12:45:52.850Z,5.10
2023-05-09T12:48:38.893Z,6.43
2023-05-09T12:51:24.342Z,6.93
2023-05-09T12:54:10.922Z,6.22
2023-05-09T12:56:58.453Z,5.43
2023-05-09T12:59:44.277Z,6.40
2023-05-09T13:02:34.722Z,5.20
2023-05-09T13:05:21.784Z,4.88
2023-05-09T13:08:07.293Z,4.50
2023-05-09T13:10:58.051Z,3.80
2023-05-09T13:13:49.790Z,3.47
2023-05-09T13:16:35.683Z,3.58
2023-05-09T13:19:21.511Z,3.20
2023-05-09T13:22:06.541Z,3.08
2023-05-09T13:24:52.014Z,3.15
2023-05-09T13:27:37.943Z,3.30
2023-05-09T13:30:23.070Z,3.30
2023-05-09T13:33:23.841Z,3.78
2023-05-09T13:36:10.787Z,3.75
2023-05-09T13:38:56.512Z,3.17
2023-05-09T13:41:41.849Z,3.25
2023-05-09T13:44:27.412Z,3.53
2023-05-09T13:47:12.851Z,3.40
2023-05-09T13:49:58.222Z,3.20
2023-05-09T13:52:43.669Z,3.08
2023-05-09T13:55:30.810Z,2.63
2023-05-09T13:58:16.354Z,2.42
2023-05-09T14:01:01.413Z,2.08
2023-05-09T14:03:49.034Z,2.10
2023-05-09T14:06:34.327Z,1.98
2023-05-09T14:09:22.138Z,1.65
2023-05-09T14:12:07.836Z,1.60
2023-05-09T14:14:53.100Z,1.30
2023-05-09T14:17:39.982Z,1.17
2023-05-09T14:20:25.659Z,1.40
2023-05-09T14:23:11.118Z,1.52
2023-05-09T14:25:57.243Z,1.65
2023-05-09T14:28:42.524Z,1.40
2023-05-09T14:31:28.997Z,1.55
2023-05-09T14:34:14.586Z,1.40
2023-05-09T14:37:00.144Z,1.70
2023-05-09T14:39:45.506Z,1.73
2023-05-09T14:42:31.970Z,2.00
2023-05-09T14:45:17.575Z,1.60
2023-05-09T14:48:03.445Z,1.80
2023-05-09T14:50:49.886Z,1.60
2023-05-09T14:53:39.575Z,1.60
2023-05-09T14:56:25.010Z,1.50
2023-05-09T14:59:10.476Z,1.48
2023-05-09T15:01:55.955Z,1.63
2023-05-09T15:04:43.670Z,1.70
2023-05-09T15:07:29.008Z,1.73
2023-05-09T15:10:14.756Z,1.40
2023-05-09T15:13:02.264Z,1.70
2023-05-09T15:15:48.851Z,1.85
2023-05-09T15:18:34.347Z,2.00
2023-05-09T15:21:19.604Z,1.90
2023-05-09T15:24:05.544Z,1.85
2023-05-09T15:26:50.788Z,1.50
2023-05-09T15:29:36.094Z,1.67
2023-05-09T15:32:21.252Z,1.83
2023-05-09T15:35:08.182Z,1.70
2023-05-09T15:37:53.419Z,1.73
2023-05-09T15:40:40.381Z,1.52
2023-05-09T15:43:26.037Z,1.50
2023-05-09T15:46:11.597Z,1.60
2023-05-09T15:48:58.239Z,1.30
2023-05-09T15:51:43.438Z,1.30
2023-05-09T15:54:29.358Z,1.60
2023-05-09T15:57:14.932Z,1.48
2023-05-09T16:00:00.583Z,1.67
2023-05-09T16:02:45.871Z,2.00
2023-05-09T16:05:31.270Z,1.90
2023-05-09T16:08:17.019Z,1.73
2023-05-09T16:11:03.292Z,1.63
2023-05-09T16:13:48.884Z,2.20
2023-05-09T16:16:34.777Z,1.70
2023-05-09T16:19:21.206Z,1.80
2023-05-09T16:22:06.662Z,2.13
2023-05-09T16:24:52.016Z,2.00
2023-05-09T16:27:37.630Z,2.00
2023-05-09T16:30:23.189Z,2.03
2023-05-09T16:33:08.592Z,2.08
2023-05-09T16:35:53.882Z,2.33
2023-05-09T16:38:39.264Z,2.55
2023-05-09T16:41:24.636Z,2.40
2023-05-09T16:44:10.254Z,2.33
2023-05-09T16:46:55.582Z,2.28
2023-05-09T16:49:41.019Z,2.30
2023-05-09T16:52:26.856Z,2.83
2023-05-09T16:55:12.154Z,3.10
2023-05-09T16:57:57.468Z,3.33
2023-05-09T17:00:43.002Z,3.75
2023-05-09T17:03:29.131Z,4.07
2023-05-09T17:06:14.664Z,4.10
2023-05-09T17:09:00.716Z,4.00
2023-05-09T17:11:46.199Z,3.78
2023-05-09T17:14:31.529Z,3.47
2023-05-09T17:17:17.665Z,3.50
2023-05-09T17:20:04.252Z,3.20
2023-05-09T17:22:49.772Z,3.13
2023-05-09T17:25:36.259Z,2.80
2023-05-09T17:28:21.989Z,3.08
2023-05-09T17:31:07.573Z,5.10
2023-05-09T17:33:52.753Z,4.60
2023-05-09T17:36:38.272Z,3.55
2023-05-09T17:39:23.780Z,3.08
2023-05-09T17:42:09.109Z,2.63
2023-05-09T17:44:54.870Z,2.22
2023-05-09T17:47:40.580Z,1.92
2023-05-09T17:50:26.071Z,1.50
2023-05-09T17:53:11.745Z,1.38
2023-05-09T17:55:58.007Z,1.23
2023-05-09T17:58:43.219Z,1.27
2023-05-09T18:01:28.897Z,1.40
2023-05-09T18:04:14.306Z,1.30
2023-05-09T18:07:00.193Z,1.40
2023-05-09T18:09:45.701Z,1.70
2023-05-09T18:12:31.388Z,1.50
2023-05-09T18:15:17.355Z,1.30
2023-05-09T18:18:02.885Z,1.63
2023-05-09T18:20:48.489Z,1.48
2023-05-09T18:23:33.779Z,1.50
2023-05-09T18:26:19.329Z,1.70
2023-05-09T18:29:04.653Z,1.35
2023-05-09T18:31:50.537Z,1.60
2023-05-09T18:34:35.983Z,1.13
2023-05-09T18:37:22.604Z,1.20
2023-05-09T18:40:14.665Z,1.30
2023-05-09T18:45:47.847Z,1.60
2023-05-09T18:48:33.503Z,1.40
2023-05-09T18:51:19.713Z,1.55
2023-05-09T18:54:05.292Z,1.60
2023-05-09T18:56:50.627Z,1.70
2023-05-09T18:59:35.954Z,1.80
2023-05-09T19:02:22.311Z,1.75
2023-05-09T19:05:08.992Z,1.60
2023-05-09T19:07:54.345Z,1.98
2023-05-09T19:10:39.853Z,1.70
2023-05-09T19:13:25.250Z,2.05
2023-05-09T19:16:10.778Z,2.20
2023-05-09T19:18:57.775Z,2.08
2023-05-09T19:21:43.652Z,1.98
2023-05-09T19:24:28.799Z,1.63
2023-05-09T19:27:14.448Z,1.75
2023-05-09T19:29:59.908Z,2.15
2023-05-09T19:32:45.370Z,2.10
2023-05-09T19:35:30.601Z,2.30
2023-05-09T19:38:16.226Z,5.75
2023-05-09T19:41:02.023Z,7.82
2023-05-09T19:43:48.640Z,5.72
2023-05-09T19:46:35.249Z,4.45
2023-05-09T19:49:20.839Z,3.45
2023-05-09T19:52:06.963Z,3.47
2023-05-09T19:54:52.167Z,3.20
2023-05-09T19:57:37.449Z,2.80
2023-05-09T20:00:23.100Z,2.63
2023-05-09T20:03:08.488Z,2.50
2023-05-09T20:05:56.537Z,2.58
2023-05-09T20:08:41.729Z,2.72
2023-05-09T20:11:27.508Z,2.70
2023-05-09T20:14:12.813Z,2.67
2023-05-09T20:16:58.312Z,3.08
2023-05-09T20:19:43.464Z,3.17
2023-05-09T20:22:28.894Z,2.95
2023-05-09T20:25:15.196Z,2.97
2023-05-09T20:28:00.601Z,3.70
2023-05-09T20:30:46.631Z,3.10
2023-05-09T20:33:32.011Z,2.90
2023-05-09T20:36:17.400Z,4.00
2023-05-09T20:39:03.374Z,5.35
2023-05-09T20:41:50.181Z,5.28
2023-05-09T20:44:35.754Z,4.63
2023-05-09T20:47:20.982Z,4.30
2023-05-09T20:50:07.256Z,3.83
2023-05-09T20:52:52.434Z,3.03
2023-05-09T20:55:37.842Z,3.25
2023-05-09T20:58:23.265Z,3.50
2023-05-09T21:01:08.706Z,3.30
2023-05-09T21:03:54.190Z,3.30
2023-05-09T21:06:39.468Z,3.38
2023-05-09T21:09:24.996Z,3.90
2023-05-09T21:12:11.373Z,4.15
2023-05-09T21:14:56.829Z,4.35
2023-05-09T21:17:42.482Z,5.43
2023-05-09T21:20:27.710Z,6.95
2023-05-09T21:23:14.347Z,5.95
2023-05-09T21:26:00.333Z,7.38
2023-05-09T21:28:45.580Z,6.22
2023-05-09T21:31:31.315Z,7.80
2023-05-09T21:34:16.543Z,8.27
2023-05-09T21:37:01.985Z,8.65
2023-05-09T21:39:47.285Z,10.23
2023-05-09T21:42:32.637Z,9.40
2023-05-09T21:45:19.125Z,9.75
2023-05-09T21:48:04.854Z,10.02
2023-05-09T21:50:50.024Z,12.07
2023-05-09T21:53:35.553Z,12.10
2023-05-09T21:56:22.105Z,12.88
2023-05-09T21:59:07.634Z,12.77
2023-05-09T22:01:53.232Z,12.30
2023-05-09T22:04:40.069Z,12.23
2023-05-09T22:07:25.623Z,12.52
2023-05-09T22:10:11.184Z,12.18
2023-05-09T22:12:56.816Z,12.55
2023-05-09T22:15:42.464Z,12.75
2023-05-09T22:18:27.797Z,13.90
2023-05-09T22:21:13.222Z,13.68
2023-05-09T22:23:58.727Z,14.75
2023-05-09T22:26:44.126Z,14.32
2023-05-09T22:29:29.524Z,14.20
2023-05-09T22:32:15.023Z,13.57
2023-05-09T22:35:00.427Z,14.43
2023-05-09T22:37:45.918Z,13.93
2023-05-09T22:40:32.662Z,14.50
2023-05-09T22:43:17.742Z,15.05
2023-05-09T22:46:03.290Z,14.60
2023-05-09T22:48:48.704Z,15.55
2023-05-09T22:51:34.186Z,17.40
2023-05-09T22:54:21.579Z,17.17
2023-05-09T22:57:06.882Z,17.23
2023-05-09T22:59:53.183Z,16.95
2023-05-09T23:02:38.501Z,16.77
2023-05-09T23:05:23.767Z,16.48
2023-05-09T23:08:09.968Z,18.73
2023-05-09T23:10:55.465Z,17.73
2023-05-09T23:13:40.902Z,17.17
2023-05-09T23:16:26.197Z,16.73
2023-05-09T23:19:11.619Z,18.27
2023-05-09T23:21:58.926Z,15.65
2023-05-09T23:24:44.290Z,15.85
2023-05-09T23:27:31.139Z,15.45
2023-05-09T23:30:16.780Z,15.02
2023-05-09T23:33:02.461Z,14.65
2023-05-09T23:35:48.400Z,14.88
2023-05-09T23:38:33.949Z,16.02
2023-05-09T23:41:21.837Z,15.57
2023-05-09T23:44:07.567Z,14.43
2023-05-09T23:46:53.228Z,16.58
2023-05-09T23:49:38.520Z,15.65
2023-05-09T23:52:24.015Z,15.50
2023-05-09T23:55:09.685Z,14.68
2023-05-09T23:57:55.018Z,13.85
